DRK201 VIDP-VQPR
Flight info
| Callsign | DRK201 |
|---|---|
| Flight time | 1h 52m |
| Altitude | 37000 |
| Route | ALI6H ALI DCT KTM B345 TUMLI G348 SUBSU |
| Aircraft | A319/M-SDE3FGHIRWY/LB1 |
Departure
| Time | 2025-09-04 23:07 |
|---|---|
| Airport | Indira Gandhi International Airport (VIDP) |
Arrival
| Time | 2025-09-05 00:59 |
|---|---|
| Airport | Paro International Airport (VQPR) |
| Time | Latitude | Longitude | Altitude | Speed | Heading |
|---|---|---|---|---|---|
| 2025-09-04 22:47 | 28.55713 | 77.08268 | 734 ft | 0 kts | 102° |
| 2025-09-04 22:59 | 28.55719 | 77.08236 | 731 ft | 2 kts | 102° |
| 2025-09-04 22:59 | 28.55727 | 77.08199 | 733 ft | 2 kts | 104° |
| 2025-09-04 22:59 | 28.55731 | 77.08181 | 732 ft | 2 kts | 108° |
| 2025-09-04 23:00 | 28.55747 | 77.08159 | 733 ft | 1 kts | 194° |
| 2025-09-04 23:02 | 28.55737 | 77.08156 | 733 ft | 5 kts | 192° |
| 2025-09-04 23:02 | 28.55622 | 77.07938 | 733 ft | 23 kts | 249° |
| 2025-09-04 23:03 | 28.55442 | 77.07817 | 734 ft | 26 kts | 194° |
| 2025-09-04 23:03 | 28.55066 | 77.07658 | 737 ft | 26 kts | 258° |
| 2025-09-04 23:04 | 28.55162 | 77.07259 | 733 ft | 28 kts | 285° |
| 2025-09-04 23:04 | 28.55206 | 77.07046 | 731 ft | 28 kts | 273° |
| 2025-09-04 23:05 | 28.54720 | 77.06855 | 730 ft | 25 kts | 190° |
| 2025-09-04 23:05 | 28.54573 | 77.07246 | 735 ft | 62 kts | 103° |
| 2025-09-04 23:06 | 28.54180 | 77.09086 | 758 ft | 167 kts | 104° |
| 2025-09-04 23:06 | 28.53557 | 77.11559 | 2018 ft | 160 kts | 111° |
| 2025-09-04 23:06 | 28.52824 | 77.12554 | 2472 ft | 175 kts | 141° |
| 2025-09-04 23:07 | 28.50049 | 77.13128 | 2989 ft | 229 kts | 168° |
| 2025-09-04 23:07 | 28.46690 | 77.13447 | 4012 ft | 257 kts | 169° |
| 2025-09-04 23:08 | 28.42977 | 77.13814 | 5387 ft | 273 kts | 169° |
| 2025-09-04 23:09 | 28.37194 | 77.14396 | 7677 ft | 283 kts | 169° |
| 2025-09-04 23:09 | 28.33224 | 77.14801 | 9160 ft | 290 kts | 169° |
| 2025-09-04 23:10 | 28.29451 | 77.16136 | 10487 ft | 284 kts | 140° |
| 2025-09-04 23:10 | 28.27104 | 77.19639 | 11577 ft | 291 kts | 113° |
| 2025-09-04 23:10 | 28.26213 | 77.21798 | 11708 ft | 313 kts | 113° |
| 2025-09-04 23:11 | 28.24271 | 77.26552 | 12193 ft | 344 kts | 113° |
| 2025-09-04 23:11 | 28.22218 | 77.31524 | 13289 ft | 352 kts | 114° |
| 2025-09-04 23:12 | 28.20106 | 77.36603 | 14278 ft | 359 kts | 114° |
| 2025-09-04 23:13 | 28.16721 | 77.44323 | 15691 ft | 370 kts | 116° |
| 2025-09-04 23:13 | 28.14295 | 77.49558 | 16639 ft | 376 kts | 116° |
| 2025-09-04 23:14 | 28.11850 | 77.54860 | 17537 ft | 383 kts | 116° |
| 2025-09-04 23:14 | 28.09388 | 77.60261 | 18360 ft | 389 kts | 116° |
| 2025-09-04 23:15 | 28.06891 | 77.65755 | 19129 ft | 395 kts | 116° |
| 2025-09-04 23:15 | 28.05622 | 77.68534 | 19521 ft | 398 kts | 116° |
| 2025-09-04 23:15 | 28.03051 | 77.74142 | 20265 ft | 404 kts | 116° |
| 2025-09-04 23:16 | 28.00445 | 77.79818 | 20983 ft | 409 kts | 116° |
| 2025-09-04 23:17 | 27.96468 | 77.88470 | 22003 ft | 417 kts | 117° |
| 2025-09-04 23:17 | 27.93778 | 77.94325 | 22642 ft | 422 kts | 117° |
| 2025-09-04 23:18 | 27.91057 | 78.00240 | 23255 ft | 426 kts | 117° |
| 2025-09-04 23:18 | 27.88304 | 78.06209 | 23759 ft | 430 kts | 117° |
| 2025-09-04 23:18 | 27.86919 | 78.09207 | 24019 ft | 432 kts | 117° |
| 2025-09-04 23:19 | 27.84217 | 78.15286 | 24513 ft | 435 kts | 111° |
| 2025-09-04 23:21 | 27.83001 | 78.39306 | 26172 ft | 446 kts | 90° |
| 2025-09-04 23:22 | 27.83048 | 78.64144 | 27630 ft | 456 kts | 90° |
| 2025-09-04 23:25 | 27.83024 | 78.96840 | 29281 ft | 469 kts | 91° |
| 2025-09-04 23:26 | 27.82960 | 79.22558 | 30855 ft | 467 kts | 91° |
| 2025-09-04 23:29 | 27.82820 | 79.55503 | 33007 ft | 464 kts | 91° |
| 2025-09-04 23:30 | 27.82644 | 79.80961 | 34619 ft | 461 kts | 91° |
| 2025-09-04 23:33 | 27.82356 | 80.13434 | 36424 ft | 457 kts | 92° |
| 2025-09-04 23:34 | 27.82104 | 80.37400 | 36736 ft | 459 kts | 92° |
| 2025-09-04 23:37 | 27.81675 | 80.70584 | 36744 ft | 473 kts | 92° |
| 2025-09-04 23:38 | 27.81281 | 80.96650 | 36756 ft | 475 kts | 92° |
| 2025-09-04 23:41 | 27.80706 | 81.30308 | 36754 ft | 476 kts | 92° |
| 2025-09-04 23:42 | 27.80189 | 81.56471 | 36762 ft | 476 kts | 92° |
| 2025-09-04 23:45 | 27.79471 | 81.90096 | 36770 ft | 476 kts | 92° |
| 2025-09-04 23:46 | 27.78853 | 82.16211 | 36779 ft | 475 kts | 92° |
| 2025-09-04 23:48 | 27.78183 | 82.42348 | 36796 ft | 475 kts | 92° |
| 2025-09-04 23:50 | 27.77261 | 82.75869 | 36810 ft | 475 kts | 92° |
| 2025-09-04 23:53 | 27.76247 | 83.09332 | 36826 ft | 473 kts | 92° |
| 2025-09-04 23:55 | 27.75292 | 83.39050 | 36839 ft | 472 kts | 93° |
| 2025-09-04 23:57 | 27.74278 | 83.68636 | 36864 ft | 471 kts | 93° |
| 2025-09-04 23:59 | 27.73198 | 83.98137 | 36869 ft | 470 kts | 93° |
| 2025-09-05 00:01 | 27.72048 | 84.27574 | 36881 ft | 469 kts | 93° |
| 2025-09-05 00:02 | 27.70986 | 84.53360 | 36912 ft | 469 kts | 94° |
| 2025-09-05 00:05 | 27.69581 | 84.86453 | 36949 ft | 469 kts | 94° |
| 2025-09-05 00:06 | 27.68412 | 85.12201 | 37037 ft | 470 kts | 94° |
| 2025-09-05 00:09 | 27.65753 | 85.43337 | 37071 ft | 469 kts | 103° |
| 2025-09-05 00:10 | 27.60962 | 85.68508 | 37041 ft | 469 kts | 103° |
| 2025-09-05 00:17 | 27.43717 | 86.57807 | 37042 ft | 469 kts | 103° |
| 2025-09-05 00:21 | 27.32513 | 87.15111 | 36976 ft | 469 kts | 103° |
| 2025-09-05 00:23 | 27.18282 | 87.43769 | 36950 ft | 468 kts | 122° |
| 2025-09-05 00:25 | 27.06283 | 87.65427 | 36941 ft | 466 kts | 122° |
| 2025-09-05 00:31 | 26.72944 | 88.40042 | 36827 ft | 465 kts | 63° |
| 2025-09-05 00:33 | 26.86582 | 88.65035 | 30054 ft | 485 kts | 59° |
| 2025-09-05 00:34 | 26.98782 | 88.87469 | 23770 ft | 469 kts | 59° |
| 2025-09-05 00:35 | 27.01990 | 88.93769 | 22243 ft | 460 kts | 61° |
| 2025-09-05 00:35 | 27.04976 | 88.99888 | 21688 ft | 431 kts | 61° |
| 2025-09-05 00:36 | 27.07779 | 89.05586 | 21425 ft | 399 kts | 61° |
| 2025-09-05 00:37 | 27.11558 | 89.13158 | 20957 ft | 347 kts | 60° |
| 2025-09-05 00:37 | 27.14110 | 89.17551 | 20702 ft | 328 kts | 40° |
| 2025-09-05 00:38 | 27.18230 | 89.19597 | 19778 ft | 329 kts | 15° |
| 2025-09-05 00:38 | 27.22593 | 89.20964 | 18813 ft | 323 kts | 15° |
| 2025-09-05 00:38 | 27.24754 | 89.21643 | 18318 ft | 322 kts | 15° |
| 2025-09-05 00:39 | 27.29039 | 89.23003 | 17292 ft | 317 kts | 15° |
| 2025-09-05 00:39 | 27.32479 | 89.24105 | 16753 ft | 300 kts | 15° |
| 2025-09-05 00:40 | 27.36501 | 89.25394 | 15504 ft | 304 kts | 15° |
| 2025-09-05 00:41 | 27.42738 | 89.25820 | 14050 ft | 294 kts | 355° |
| 2025-09-05 00:41 | 27.46318 | 89.26782 | 13705 ft | 253 kts | 36° |
| 2025-09-05 00:42 | 27.48091 | 89.29661 | 13518 ft | 202 kts | 74° |
| 2025-09-05 00:42 | 27.48076 | 89.32679 | 12502 ft | 198 kts | 114° |
| 2025-09-05 00:42 | 27.47355 | 89.33970 | 11870 ft | 196 kts | 118° |
| 2025-09-05 00:43 | 27.45879 | 89.36474 | 10875 ft | 186 kts | 130° |
| 2025-09-05 00:43 | 27.44187 | 89.38567 | 9909 ft | 179 kts | 127° |
| 2025-09-05 00:44 | 27.42974 | 89.41184 | 8387 ft | 189 kts | 114° |
| 2025-09-05 00:45 | 27.39819 | 89.42794 | 7331 ft | 138 kts | 150° |
| 2025-09-05 00:45 | 27.38157 | 89.43847 | 8161 ft | 135 kts | 152° |
| 2025-09-05 00:45 | 27.37320 | 89.44402 | 8577 ft | 151 kts | 141° |
| 2025-09-05 00:46 | 27.35445 | 89.45910 | 9395 ft | 173 kts | 146° |
| 2025-09-05 00:46 | 27.33092 | 89.47458 | 9813 ft | 220 kts | 150° |
| 2025-09-05 00:47 | 27.30458 | 89.49144 | 11490 ft | 188 kts | 150° |
| 2025-09-05 00:47 | 27.27990 | 89.50674 | 12120 ft | 227 kts | 154° |
| 2025-09-05 00:48 | 27.23553 | 89.50617 | 13136 ft | 253 kts | 233° |
| 2025-09-05 00:49 | 27.23392 | 89.46588 | 13143 ft | 289 kts | 302° |
| 2025-09-05 00:49 | 27.24798 | 89.44962 | 13159 ft | 296 kts | 322° |
| 2025-09-05 00:49 | 27.28094 | 89.42151 | 13184 ft | 298 kts | 322° |
| 2025-09-05 00:50 | 27.31375 | 89.39328 | 13215 ft | 291 kts | 317° |
| 2025-09-05 00:51 | 27.33714 | 89.36062 | 13116 ft | 258 kts | 302° |
| 2025-09-05 00:51 | 27.35442 | 89.32896 | 12817 ft | 211 kts | 301° |
| 2025-09-05 00:51 | 27.36164 | 89.31606 | 12793 ft | 180 kts | 302° |
| 2025-09-05 00:52 | 27.37643 | 89.29563 | 12557 ft | 163 kts | 325° |
| 2025-09-05 00:53 | 27.40460 | 89.27421 | 12225 ft | 165 kts | 317° |
| 2025-09-05 00:53 | 27.42220 | 89.25653 | 11529 ft | 164 kts | 338° |
| 2025-09-05 00:54 | 27.44393 | 89.25856 | 11400 ft | 159 kts | 20° |
| 2025-09-05 00:54 | 27.46119 | 89.27186 | 12092 ft | 144 kts | 40° |
| 2025-09-05 00:55 | 27.47646 | 89.28654 | 12405 ft | 153 kts | 39° |
| 2025-09-05 00:55 | 27.48945 | 89.31032 | 10115 ft | 209 kts | 77° |
| 2025-09-05 00:55 | 27.49051 | 89.32616 | 9538 ft | 198 kts | 93° |
| 2025-09-05 00:56 | 27.47337 | 89.34574 | 8763 ft | 171 kts | 149° |
| 2025-09-05 00:57 | 27.44830 | 89.37445 | 8680 ft | 167 kts | 123° |
| 2025-09-05 00:57 | 27.43716 | 89.39690 | 8492 ft | 163 kts | 118° |
| 2025-09-05 00:58 | 27.42329 | 89.41645 | 7948 ft | 166 kts | 165° |
| 2025-09-05 00:58 | 27.40260 | 89.42514 | 7330 ft | 134 kts | 151° |
| 2025-09-05 00:59 | 27.39551 | 89.42966 | 7306 ft | 22 kts | 150° |
| 2025-09-05 00:59 | 27.39437 | 89.42999 | 7301 ft | 15 kts | 220° |
| 2025-09-05 00:59 | 27.39497 | 89.42894 | 7307 ft | 5 kts | 330° |
| 2025-09-05 01:00 | 27.39600 | 89.42826 | 7311 ft | 17 kts | 330° |
| 2025-09-05 01:01 | 27.39853 | 89.42669 | 7318 ft | 10 kts | 331° |
| 2025-09-05 01:01 | 27.39979 | 89.42589 | 7320 ft | 12 kts | 330° |
| 2025-09-05 01:02 | 27.40159 | 89.42472 | 7326 ft | 14 kts | 329° |
| 2025-09-05 01:02 | 27.40236 | 89.42422 | 7328 ft | 12 kts | 330° |
| 2025-09-05 01:02 | 27.40329 | 89.42362 | 7333 ft | 3 kts | 330° |
| 2025-09-05 01:03 | 27.40391 | 89.42332 | 7336 ft | 6 kts | 328° |
| 2025-09-05 01:03 | 27.40514 | 89.42241 | 7341 ft | 7 kts | 330° |
| 2025-09-05 01:04 | 27.40552 | 89.42208 | 7344 ft | 1 kts | 278° |
| 2025-09-05 01:05 | 27.40528 | 89.42160 | 7345 ft | 0 kts | 238° |